Huvudsida
METAR-TAF:

METAR-TAF

Flygplatser :

Bukarest, Rumänien

latitud: 44-33N, longitud: 026-06E, höjd: 95 m

Aktuellt väderrapport

Denna rapport gjordes för 35 minuter sedan, klockan 21:00 UTC
Vind 5 kt från nord/nordost
Temperatur 22°C
Fuktighet 69%
Tryck 1017 hPa
Sikt 10 km eller mer
Inga moln under 1 500 m eller inga cumulonimbus

METAR: LROP 192100Z 03005KT CAVOK 22/16 Q1017 NOSIG

Tid: 00:35 (21:35 UTC)

Väderprognos

Denna rapport gjordes för 4 timmar och 35 minuter sedan, klockan 17:00 UTC
Prognos gäller från 19 kl. 18 UTC till 20 kl. 18 UTC
Vind 8 kt från nord/nordost
Sikt 10 km eller mer
Inga moln under 1 500 m eller inga cumulonimbus
Blir
från 20 kl. 11 UTC till 20 kl. 13 UTC
Spridda moln på en höjd av 4500 ft, Cumulonimbus.
Temporärt
från 20 kl. 13 UTC till 20 kl. 18 UTC
Vind 15 kt varierande vindriktning i byarna ända upp till 25 kt
Sikt: 3000 m
åska, regn

TAF: LROP 191700Z 1918/2018 03008KT CAVOK BECMG 2011/2013 SCT045CB TEMPO 2013/2018 VRB15G25KT 3000 TSRA

Aktuella väderrapporter och prognoser från 4000 flygplatser (METAR- och TAF-rapporter).

De tillgängliga stationerna syns som gula och röda prickar på kartan.

För musen över prickarna för att se namnen på stationerna.

Klicka sedan för att få väderrapporter och prognoser.

För att ändra kartan: Klicka på de gröna knapparna med ett svart kors på för att zooma in; den gröna knappen med ett streck på för att zooma ut; eller på de gröna pilarna för angränsande kartor.


METAR-TAF: